sensor_id;sensor_type;location;lat;lon;timestamp;P1;durP1;ratioP1;P2;durP2;ratioP2
67074;SDS011;53990;50.334;18.640;2023-06-26T00:01:34;8.30;;;6.80;;
67074;SDS011;53990;50.334;18.640;2023-06-26T00:04:01;9.60;;;6.90;;
67074;SDS011;53990;50.334;18.640;2023-06-26T00:06:28;8.70;;;7.10;;
67074;SDS011;53990;50.334;18.640;2023-06-26T00:08:55;10.10;;;6.90;;
67074;SDS011;53990;50.334;18.640;2023-06-26T00:11:23;11.20;;;7.50;;
67074;SDS011;53990;50.334;18.640;2023-06-26T00:13:50;9.20;;;7.60;;
67074;SDS011;53990;50.334;18.640;2023-06-26T00:16:16;11.60;;;8.00;;
67074;SDS011;53990;50.334;18.640;2023-06-26T00:18:43;11.80;;;8.00;;
67074;SDS011;53990;50.334;18.640;2023-06-26T00:21:10;11.20;;;7.90;;
67074;SDS011;53990;50.334;18.640;2023-06-26T00:23:37;11.80;;;8.10;;
67074;SDS011;53990;50.334;18.640;2023-06-26T00:26:04;10.80;;;7.30;;
67074;SDS011;53990;50.334;18.640;2023-06-26T00:28:31;10.30;;;8.20;;
67074;SDS011;53990;50.334;18.640;2023-06-26T00:30:57;10.10;;;7.80;;
67074;SDS011;53990;50.334;18.640;2023-06-26T00:33:24;9.70;;;7.90;;
67074;SDS011;53990;50.334;18.640;2023-06-26T00:35:51;9.30;;;7.40;;
67074;SDS011;53990;50.334;18.640;2023-06-26T00:38:17;9.90;;;7.30;;
67074;SDS011;53990;50.334;18.640;2023-06-26T00:40:44;10.90;;;7.80;;
67074;SDS011;53990;50.334;18.640;2023-06-26T00:43:11;9.20;;;8.00;;
67074;SDS011;53990;50.334;18.640;2023-06-26T00:45:38;11.40;;;7.80;;
67074;SDS011;53990;50.334;18.640;2023-06-26T00:48:05;9.70;;;7.70;;
67074;SDS011;53990;50.334;18.640;2023-06-26T00:50:32;11.10;;;8.70;;
67074;SDS011;53990;50.334;18.640;2023-06-26T00:52:59;10.00;;;8.10;;
67074;SDS011;53990;50.334;18.640;2023-06-26T00:55:27;10.50;;;7.60;;
67074;SDS011;53990;50.334;18.640;2023-06-26T00:57:55;11.90;;;8.40;;
67074;SDS011;53990;50.334;18.640;2023-06-26T01:00:21;9.40;;;8.10;;
67074;SDS011;53990;50.334;18.640;2023-06-26T01:02:48;10.40;;;7.90;;
67074;SDS011;53990;50.334;18.640;2023-06-26T01:05:15;11.10;;;7.90;;
67074;SDS011;53990;50.334;18.640;2023-06-26T01:07:49;10.20;;;8.10;;
67074;SDS011;53990;50.334;18.640;2023-06-26T01:10:17;11.30;;;8.40;;
67074;SDS011;53990;50.334;18.640;2023-06-26T01:12:44;10.60;;;8.10;;
67074;SDS011;53990;50.334;18.640;2023-06-26T01:15:11;9.60;;;7.90;;
67074;SDS011;53990;50.334;18.640;2023-06-26T01:17:38;11.10;;;7.80;;
67074;SDS011;53990;50.334;18.640;2023-06-26T01:20:06;12.80;;;9.00;;
67074;SDS011;53990;50.334;18.640;2023-06-26T01:25:23;9.60;;;8.00;;
67074;SDS011;53990;50.334;18.640;2023-06-26T01:27:54;10.60;;;8.40;;
67074;SDS011;53990;50.334;18.640;2023-06-26T01:30:21;10.70;;;9.00;;
67074;SDS011;53990;50.334;18.640;2023-06-26T01:32:49;9.60;;;7.90;;
67074;SDS011;53990;50.334;18.640;2023-06-26T01:35:17;12.40;;;8.80;;
67074;SDS011;53990;50.334;18.640;2023-06-26T01:37:44;12.20;;;8.90;;
67074;SDS011;53990;50.334;18.640;2023-06-26T01:40:10;11.90;;;8.50;;
67074;SDS011;53990;50.334;18.640;2023-06-26T01:42:37;10.90;;;8.20;;
67074;SDS011;53990;50.334;18.640;2023-06-26T01:45:12;11.80;;;9.30;;
67074;SDS011;53990;50.334;18.640;2023-06-26T01:47:43;12.20;;;9.00;;
67074;SDS011;53990;50.334;18.640;2023-06-26T01:50:15;12.40;;;8.40;;
67074;SDS011;53990;50.334;18.640;2023-06-26T01:53:10;12.50;;;9.20;;
67074;SDS011;53990;50.334;18.640;2023-06-26T01:55:51;10.70;;;8.90;;
67074;SDS011;53990;50.334;18.640;2023-06-26T01:58:20;11.40;;;8.70;;
67074;SDS011;53990;50.334;18.640;2023-06-26T02:00:49;12.50;;;9.00;;
67074;SDS011;53990;50.334;18.640;2023-06-26T02:03:16;11.40;;;8.60;;
67074;SDS011;53990;50.334;18.640;2023-06-26T02:05:42;11.00;;;8.60;;
67074;SDS011;53990;50.334;18.640;2023-06-26T02:08:09;10.80;;;8.90;;
67074;SDS011;53990;50.334;18.640;2023-06-26T02:10:36;11.60;;;8.80;;
67074;SDS011;53990;50.334;18.640;2023-06-26T02:13:03;11.90;;;9.60;;
67074;SDS011;53990;50.334;18.640;2023-06-26T02:15:30;10.10;;;8.50;;
67074;SDS011;53990;50.334;18.640;2023-06-26T02:17:56;13.20;;;8.80;;
67074;SDS011;53990;50.334;18.640;2023-06-26T02:20:23;12.20;;;9.00;;
67074;SDS011;53990;50.334;18.640;2023-06-26T02:22:50;11.50;;;8.50;;
67074;SDS011;53990;50.334;18.640;2023-06-26T02:25:17;10.90;;;8.70;;
67074;SDS011;53990;50.334;18.640;2023-06-26T02:27:44;12.20;;;9.30;;
67074;SDS011;53990;50.334;18.640;2023-06-26T02:30:11;13.20;;;9.20;;
67074;SDS011;53990;50.334;18.640;2023-06-26T02:32:37;11.00;;;8.60;;
67074;SDS011;53990;50.334;18.640;2023-06-26T02:35:05;11.60;;;9.10;;
67074;SDS011;53990;50.334;18.640;2023-06-26T02:37:31;11.30;;;9.50;;
67074;SDS011;53990;50.334;18.640;2023-06-26T02:39:58;11.60;;;9.20;;
67074;SDS011;53990;50.334;18.640;2023-06-26T02:42:25;12.20;;;9.60;;
67074;SDS011;53990;50.334;18.640;2023-06-26T02:44:51;11.60;;;9.60;;
67074;SDS011;53990;50.334;18.640;2023-06-26T02:47:18;13.30;;;9.50;;
67074;SDS011;53990;50.334;18.640;2023-06-26T02:49:45;12.30;;;9.60;;
67074;SDS011;53990;50.334;18.640;2023-06-26T02:52:11;13.20;;;9.70;;
67074;SDS011;53990;50.334;18.640;2023-06-26T02:54:38;12.40;;;9.80;;
67074;SDS011;53990;50.334;18.640;2023-06-26T02:57:05;11.80;;;8.80;;
67074;SDS011;53990;50.334;18.640;2023-06-26T02:59:32;13.60;;;9.60;;
67074;SDS011;53990;50.334;18.640;2023-06-26T03:01:59;12.30;;;9.70;;
67074;SDS011;53990;50.334;18.640;2023-06-26T03:04:25;14.60;;;9.40;;
67074;SDS011;53990;50.334;18.640;2023-06-26T03:06:52;13.10;;;9.20;;
67074;SDS011;53990;50.334;18.640;2023-06-26T03:09:19;13.50;;;9.50;;
67074;SDS011;53990;50.334;18.640;2023-06-26T03:11:45;14.10;;;10.00;;
67074;SDS011;53990;50.334;18.640;2023-06-26T03:14:12;13.60;;;10.00;;
67074;SDS011;53990;50.334;18.640;2023-06-26T03:16:40;13.30;;;9.60;;
67074;SDS011;53990;50.334;18.640;2023-06-26T03:19:06;11.80;;;8.70;;
67074;SDS011;53990;50.334;18.640;2023-06-26T03:21:33;13.70;;;9.80;;
67074;SDS011;53990;50.334;18.640;2023-06-26T03:24:00;11.80;;;9.30;;
67074;SDS011;53990;50.334;18.640;2023-06-26T03:26:26;11.30;;;8.70;;
67074;SDS011;53990;50.334;18.640;2023-06-26T03:28:54;13.50;;;9.80;;
67074;SDS011;53990;50.334;18.640;2023-06-26T03:31:21;11.50;;;8.90;;
67074;SDS011;53990;50.334;18.640;2023-06-26T03:33:48;11.90;;;8.80;;
67074;SDS011;53990;50.334;18.640;2023-06-26T03:36:15;13.50;;;9.00;;
67074;SDS011;53990;50.334;18.640;2023-06-26T03:38:41;13.30;;;9.50;;
67074;SDS011;53990;50.334;18.640;2023-06-26T03:41:08;11.00;;;8.80;;
67074;SDS011;53990;50.334;18.640;2023-06-26T03:43:35;11.70;;;8.40;;
67074;SDS011;53990;50.334;18.640;2023-06-26T03:46:02;10.90;;;8.50;;
67074;SDS011;53990;50.334;18.640;2023-06-26T03:48:28;11.10;;;9.00;;
67074;SDS011;53990;50.334;18.640;2023-06-26T03:50:55;12.40;;;8.40;;
67074;SDS011;53990;50.334;18.640;2023-06-26T03:53:22;12.50;;;8.10;;
67074;SDS011;53990;50.334;18.640;2023-06-26T03:55:48;11.50;;;8.60;;
67074;SDS011;53990;50.334;18.640;2023-06-26T03:58:15;11.80;;;8.60;;
67074;SDS011;53990;50.334;18.640;2023-06-26T04:00:42;10.60;;;8.70;;
67074;SDS011;53990;50.334;18.640;2023-06-26T04:03:09;13.60;;;9.20;;
67074;SDS011;53990;50.334;18.640;2023-06-26T04:05:35;11.90;;;8.30;;
67074;SDS011;53990;50.334;18.640;2023-06-26T04:08:02;13.90;;;9.20;;
67074;SDS011;53990;50.334;18.640;2023-06-26T04:10:29;13.00;;;9.10;;
67074;SDS011;53990;50.334;18.640;2023-06-26T04:12:56;10.90;;;8.90;;
67074;SDS011;53990;50.334;18.640;2023-06-26T04:15:23;11.40;;;8.50;;
67074;SDS011;53990;50.334;18.640;2023-06-26T04:17:49;11.40;;;8.50;;
67074;SDS011;53990;50.334;18.640;2023-06-26T04:20:16;11.40;;;8.80;;
67074;SDS011;53990;50.334;18.640;2023-06-26T04:22:43;13.10;;;10.20;;
67074;SDS011;53990;50.334;18.640;2023-06-26T04:25:09;13.70;;;10.10;;
67074;SDS011;53990;50.334;18.640;2023-06-26T04:27:38;13.90;;;10.00;;
67074;SDS011;53990;50.334;18.640;2023-06-26T04:30:05;14.80;;;10.70;;
67074;SDS011;53990;50.334;18.640;2023-06-26T04:32:32;17.90;;;11.30;;
67074;SDS011;53990;50.334;18.640;2023-06-26T04:34:59;16.10;;;11.90;;
67074;SDS011;53990;50.334;18.640;2023-06-26T04:37:26;14.90;;;11.30;;
67074;SDS011;53990;50.334;18.640;2023-06-26T04:39:52;14.50;;;10.90;;
67074;SDS011;53990;50.334;18.640;2023-06-26T04:42:19;17.20;;;11.40;;
67074;SDS011;53990;50.334;18.640;2023-06-26T04:44:48;17.80;;;11.20;;
67074;SDS011;53990;50.334;18.640;2023-06-26T04:47:14;19.50;;;13.40;;
67074;SDS011;53990;50.334;18.640;2023-06-26T04:49:41;18.30;;;12.50;;
67074;SDS011;53990;50.334;18.640;2023-06-26T04:52:15;18.50;;;12.40;;
67074;SDS011;53990;50.334;18.640;2023-06-26T04:54:42;18.30;;;12.90;;
67074;SDS011;53990;50.334;18.640;2023-06-26T04:57:08;19.20;;;11.80;;
67074;SDS011;53990;50.334;18.640;2023-06-26T04:59:36;18.80;;;13.60;;
67074;SDS011;53990;50.334;18.640;2023-06-26T05:02:03;20.40;;;13.10;;
67074;SDS011;53990;50.334;18.640;2023-06-26T05:04:31;19.80;;;13.60;;
67074;SDS011;53990;50.334;18.640;2023-06-26T05:06:58;18.40;;;13.20;;
67074;SDS011;53990;50.334;18.640;2023-06-26T05:09:24;19.20;;;12.90;;
67074;SDS011;53990;50.334;18.640;2023-06-26T05:11:51;17.10;;;12.40;;
67074;SDS011;53990;50.334;18.640;2023-06-26T05:14:18;18.90;;;12.40;;
67074;SDS011;53990;50.334;18.640;2023-06-26T05:16:44;16.90;;;12.10;;
67074;SDS011;53990;50.334;18.640;2023-06-26T05:19:11;16.40;;;12.60;;
67074;SDS011;53990;50.334;18.640;2023-06-26T05:21:39;15.80;;;11.90;;
67074;SDS011;53990;50.334;18.640;2023-06-26T05:24:06;16.10;;;12.10;;
67074;SDS011;53990;50.334;18.640;2023-06-26T05:26:34;17.20;;;12.70;;
67074;SDS011;53990;50.334;18.640;2023-06-26T05:29:01;15.40;;;12.00;;
67074;SDS011;53990;50.334;18.640;2023-06-26T05:31:29;22.10;;;13.60;;
67074;SDS011;53990;50.334;18.640;2023-06-26T05:33:57;17.50;;;13.00;;
67074;SDS011;53990;50.334;18.640;2023-06-26T05:36:26;15.90;;;11.90;;
67074;SDS011;53990;50.334;18.640;2023-06-26T05:38:55;18.20;;;13.90;;
67074;SDS011;53990;50.334;18.640;2023-06-26T05:41:23;18.00;;;13.40;;
67074;SDS011;53990;50.334;18.640;2023-06-26T05:43:50;22.70;;;14.30;;
67074;SDS011;53990;50.334;18.640;2023-06-26T05:46:16;22.40;;;13.70;;
67074;SDS011;53990;50.334;18.640;2023-06-26T05:48:43;18.50;;;13.20;;
67074;SDS011;53990;50.334;18.640;2023-06-26T05:51:10;19.30;;;13.20;;
67074;SDS011;53990;50.334;18.640;2023-06-26T05:53:37;15.70;;;12.00;;
67074;SDS011;53990;50.334;18.640;2023-06-26T05:56:04;18.10;;;13.30;;
67074;SDS011;53990;50.334;18.640;2023-06-26T05:58:32;17.70;;;12.40;;
67074;SDS011;53990;50.334;18.640;2023-06-26T06:00:59;17.70;;;13.00;;
67074;SDS011;53990;50.334;18.640;2023-06-26T06:03:25;18.10;;;13.00;;
67074;SDS011;53990;50.334;18.640;2023-06-26T06:05:52;16.70;;;13.30;;
67074;SDS011;53990;50.334;18.640;2023-06-26T06:08:19;19.40;;;13.40;;
67074;SDS011;53990;50.334;18.640;2023-06-26T06:10:46;20.20;;;13.10;;
67074;SDS011;53990;50.334;18.640;2023-06-26T06:13:12;19.10;;;13.00;;
67074;SDS011;53990;50.334;18.640;2023-06-26T06:15:39;17.40;;;13.30;;
67074;SDS011;53990;50.334;18.640;2023-06-26T06:18:06;19.00;;;12.70;;
67074;SDS011;53990;50.334;18.640;2023-06-26T06:20:32;18.10;;;13.20;;
67074;SDS011;53990;50.334;18.640;2023-06-26T06:22:59;17.40;;;12.10;;
67074;SDS011;53990;50.334;18.640;2023-06-26T06:25:26;18.20;;;13.30;;
67074;SDS011;53990;50.334;18.640;2023-06-26T06:27:54;17.20;;;13.50;;
67074;SDS011;53990;50.334;18.640;2023-06-26T06:30:21;15.40;;;11.70;;
67074;SDS011;53990;50.334;18.640;2023-06-26T06:32:47;15.70;;;11.80;;
67074;SDS011;53990;50.334;18.640;2023-06-26T06:35:18;16.20;;;11.50;;
67074;SDS011;53990;50.334;18.640;2023-06-26T06:37:45;16.10;;;11.90;;
67074;SDS011;53990;50.334;18.640;2023-06-26T06:40:12;16.10;;;11.80;;
67074;SDS011;53990;50.334;18.640;2023-06-26T06:42:39;18.00;;;12.40;;
67074;SDS011;53990;50.334;18.640;2023-06-26T06:45:06;15.50;;;11.40;;
67074;SDS011;53990;50.334;18.640;2023-06-26T06:47:33;16.10;;;12.90;;
67074;SDS011;53990;50.334;18.640;2023-06-26T06:50:00;15.60;;;11.60;;
67074;SDS011;53990;50.334;18.640;2023-06-26T06:52:36;17.40;;;12.70;;
67074;SDS011;53990;50.334;18.640;2023-06-26T06:55:04;13.70;;;11.40;;
67074;SDS011;53990;50.334;18.640;2023-06-26T06:57:36;19.30;;;11.90;;
67074;SDS011;53990;50.334;18.640;2023-06-26T07:00:05;16.30;;;11.90;;
67074;SDS011;53990;50.334;18.640;2023-06-26T07:02:39;15.60;;;11.40;;
67074;SDS011;53990;50.334;18.640;2023-06-26T07:05:06;15.10;;;11.60;;
67074;SDS011;53990;50.334;18.640;2023-06-26T07:07:34;15.80;;;11.00;;
67074;SDS011;53990;50.334;18.640;2023-06-26T07:10:03;15.40;;;10.70;;
67074;SDS011;53990;50.334;18.640;2023-06-26T07:12:31;12.90;;;10.00;;
67074;SDS011;53990;50.334;18.640;2023-06-26T07:14:58;11.30;;;9.50;;
67074;SDS011;53990;50.334;18.640;2023-06-26T07:17:24;11.90;;;9.60;;
67074;SDS011;53990;50.334;18.640;2023-06-26T07:19:51;19.00;;;14.20;;
67074;SDS011;53990;50.334;18.640;2023-06-26T07:22:18;14.80;;;9.60;;
67074;SDS011;53990;50.334;18.640;2023-06-26T07:24:48;11.70;;;9.50;;
67074;SDS011;53990;50.334;18.640;2023-06-26T07:27:15;13.20;;;10.10;;
67074;SDS011;53990;50.334;18.640;2023-06-26T07:29:42;14.10;;;10.60;;
67074;SDS011;53990;50.334;18.640;2023-06-26T07:32:09;13.80;;;11.30;;
67074;SDS011;53990;50.334;18.640;2023-06-26T07:34:36;15.00;;;9.50;;
67074;SDS011;53990;50.334;18.640;2023-06-26T07:37:03;14.50;;;9.40;;
67074;SDS011;53990;50.334;18.640;2023-06-26T07:39:30;13.60;;;10.10;;
67074;SDS011;53990;50.334;18.640;2023-06-26T07:41:57;13.90;;;10.10;;
67074;SDS011;53990;50.334;18.640;2023-06-26T07:44:27;16.70;;;12.50;;
67074;SDS011;53990;50.334;18.640;2023-06-26T07:46:53;13.00;;;9.00;;
67074;SDS011;53990;50.334;18.640;2023-06-26T07:49:20;12.20;;;9.50;;
67074;SDS011;53990;50.334;18.640;2023-06-26T07:51:47;13.40;;;10.50;;
67074;SDS011;53990;50.334;18.640;2023-06-26T07:54:13;14.80;;;10.80;;
67074;SDS011;53990;50.334;18.640;2023-06-26T07:57:04;16.30;;;11.90;;
67074;SDS011;53990;50.334;18.640;2023-06-26T07:59:33;16.50;;;12.60;;
67074;SDS011;53990;50.334;18.640;2023-06-26T08:02:00;17.80;;;13.20;;
67074;SDS011;53990;50.334;18.640;2023-06-26T08:04:28;15.00;;;11.60;;
67074;SDS011;53990;50.334;18.640;2023-06-26T08:07:01;13.60;;;11.00;;
67074;SDS011;53990;50.334;18.640;2023-06-26T08:09:29;13.20;;;10.80;;
67074;SDS011;53990;50.334;18.640;2023-06-26T08:11:56;13.90;;;10.10;;
67074;SDS011;53990;50.334;18.640;2023-06-26T08:14:24;14.20;;;10.20;;
67074;SDS011;53990;50.334;18.640;2023-06-26T08:16:51;13.30;;;9.70;;
67074;SDS011;53990;50.334;18.640;2023-06-26T08:19:18;12.10;;;9.30;;
67074;SDS011;53990;50.334;18.640;2023-06-26T08:21:45;14.70;;;10.30;;
67074;SDS011;53990;50.334;18.640;2023-06-26T08:24:13;11.60;;;9.80;;
67074;SDS011;53990;50.334;18.640;2023-06-26T08:26:42;12.00;;;9.30;;
67074;SDS011;53990;50.334;18.640;2023-06-26T08:29:09;11.90;;;9.20;;
67074;SDS011;53990;50.334;18.640;2023-06-26T08:31:36;12.20;;;9.20;;
67074;SDS011;53990;50.334;18.640;2023-06-26T08:34:04;12.00;;;9.00;;
67074;SDS011;53990;50.334;18.640;2023-06-26T08:36:31;10.60;;;8.10;;
67074;SDS011;53990;50.334;18.640;2023-06-26T08:38:58;11.10;;;8.80;;
67074;SDS011;53990;50.334;18.640;2023-06-26T08:41:25;8.80;;;6.90;;
67074;SDS011;53990;50.334;18.640;2023-06-26T08:43:52;11.90;;;7.70;;
67074;SDS011;53990;50.334;18.640;2023-06-26T08:46:19;10.00;;;7.40;;
67074;SDS011;53990;50.334;18.640;2023-06-26T08:48:55;9.60;;;7.30;;
67074;SDS011;53990;50.334;18.640;2023-06-26T08:54:01;9.90;;;8.40;;
67074;SDS011;53990;50.334;18.640;2023-06-26T08:56:32;10.90;;;8.40;;
67074;SDS011;53990;50.334;18.640;2023-06-26T08:59:02;9.60;;;7.30;;
67074;SDS011;53990;50.334;18.640;2023-06-26T09:01:29;7.50;;;6.20;;
67074;SDS011;53990;50.334;18.640;2023-06-26T09:03:56;8.50;;;6.90;;
67074;SDS011;53990;50.334;18.640;2023-06-26T09:06:23;9.50;;;7.00;;
67074;SDS011;53990;50.334;18.640;2023-06-26T09:08:49;8.40;;;6.30;;
67074;SDS011;53990;50.334;18.640;2023-06-26T09:11:16;9.50;;;6.40;;
67074;SDS011;53990;50.334;18.640;2023-06-26T09:13:43;8.50;;;6.50;;
67074;SDS011;53990;50.334;18.640;2023-06-26T09:16:10;10.40;;;7.00;;
67074;SDS011;53990;50.334;18.640;2023-06-26T09:18:36;17.10;;;11.00;;
67074;SDS011;53990;50.334;18.640;2023-06-26T09:21:07;8.00;;;5.80;;
67074;SDS011;53990;50.334;18.640;2023-06-26T09:23:35;6.80;;;5.70;;
67074;SDS011;53990;50.334;18.640;2023-06-26T09:26:03;8.30;;;5.80;;
67074;SDS011;53990;50.334;18.640;2023-06-26T09:28:32;7.30;;;5.90;;
67074;SDS011;53990;50.334;18.640;2023-06-26T09:31:04;7.10;;;5.20;;
67074;SDS011;53990;50.334;18.640;2023-06-26T09:33:35;6.70;;;5.30;;
67074;SDS011;53990;50.334;18.640;2023-06-26T09:36:07;7.60;;;5.50;;
67074;SDS011;53990;50.334;18.640;2023-06-26T09:38:35;7.10;;;6.10;;
67074;SDS011;53990;50.334;18.640;2023-06-26T09:41:03;8.00;;;5.40;;
67074;SDS011;53990;50.334;18.640;2023-06-26T09:43:29;6.20;;;5.20;;
67074;SDS011;53990;50.334;18.640;2023-06-26T09:45:58;7.60;;;5.90;;
67074;SDS011;53990;50.334;18.640;2023-06-26T09:48:28;7.90;;;6.70;;
67074;SDS011;53990;50.334;18.640;2023-06-26T09:50:55;10.40;;;6.60;;
67074;SDS011;53990;50.334;18.640;2023-06-26T09:53:22;6.30;;;5.50;;
67074;SDS011;53990;50.334;18.640;2023-06-26T09:55:49;7.50;;;6.00;;
67074;SDS011;53990;50.334;18.640;2023-06-26T09:58:16;6.80;;;5.70;;
67074;SDS011;53990;50.334;18.640;2023-06-26T10:00:44;15.10;;;6.10;;
67074;SDS011;53990;50.334;18.640;2023-06-26T10:03:11;9.00;;;6.20;;
67074;SDS011;53990;50.334;18.640;2023-06-26T10:05:41;8.20;;;6.30;;
67074;SDS011;53990;50.334;18.640;2023-06-26T10:08:09;7.30;;;6.00;;
67074;SDS011;53990;50.334;18.640;2023-06-26T10:10:37;8.00;;;5.80;;
67074;SDS011;53990;50.334;18.640;2023-06-26T10:13:08;8.00;;;5.50;;
67074;SDS011;53990;50.334;18.640;2023-06-26T10:15:37;7.40;;;5.50;;
67074;SDS011;53990;50.334;18.640;2023-06-26T10:18:06;6.30;;;5.30;;
67074;SDS011;53990;50.334;18.640;2023-06-26T10:20:33;8.30;;;6.50;;
67074;SDS011;53990;50.334;18.640;2023-06-26T10:23:01;7.30;;;5.70;;
67074;SDS011;53990;50.334;18.640;2023-06-26T10:25:30;8.80;;;5.50;;
67074;SDS011;53990;50.334;18.640;2023-06-26T10:27:59;6.20;;;5.60;;
67074;SDS011;53990;50.334;18.640;2023-06-26T10:30:33;6.40;;;5.30;;
67074;SDS011;53990;50.334;18.640;2023-06-26T10:33:01;7.10;;;5.40;;
67074;SDS011;53990;50.334;18.640;2023-06-26T10:35:30;6.40;;;5.30;;
67074;SDS011;53990;50.334;18.640;2023-06-26T10:38:01;7.10;;;5.50;;
67074;SDS011;53990;50.334;18.640;2023-06-26T10:40:46;7.60;;;5.40;;
67074;SDS011;53990;50.334;18.640;2023-06-26T10:43:15;8.60;;;5.60;;
67074;SDS011;53990;50.334;18.640;2023-06-26T10:45:47;6.80;;;5.80;;
67074;SDS011;53990;50.334;18.640;2023-06-26T10:48:18;5.70;;;5.10;;
67074;SDS011;53990;50.334;18.640;2023-06-26T10:50:48;6.80;;;5.40;;
67074;SDS011;53990;50.334;18.640;2023-06-26T10:55:59;5.90;;;5.30;;
67074;SDS011;53990;50.334;18.640;2023-06-26T10:58:43;6.30;;;5.10;;
67074;SDS011;53990;50.334;18.640;2023-06-26T11:03:49;9.10;;;6.60;;
67074;SDS011;53990;50.334;18.640;2023-06-26T11:06:20;12.40;;;9.00;;
67074;SDS011;53990;50.334;18.640;2023-06-26T11:08:49;8.60;;;6.20;;
67074;SDS011;53990;50.334;18.640;2023-06-26T11:11:16;6.80;;;5.40;;
67074;SDS011;53990;50.334;18.640;2023-06-26T11:13:45;7.70;;;5.90;;
67074;SDS011;53990;50.334;18.640;2023-06-26T11:16:14;6.30;;;5.60;;
67074;SDS011;53990;50.334;18.640;2023-06-26T11:18:44;7.20;;;6.00;;
67074;SDS011;53990;50.334;18.640;2023-06-26T11:21:12;7.50;;;5.50;;
67074;SDS011;53990;50.334;18.640;2023-06-26T11:23:43;7.20;;;6.10;;
67074;SDS011;53990;50.334;18.640;2023-06-26T11:26:21;6.60;;;5.50;;
67074;SDS011;53990;50.334;18.640;2023-06-26T11:31:28;8.60;;;5.60;;
67074;SDS011;53990;50.334;18.640;2023-06-26T11:34:06;6.90;;;6.00;;
67074;SDS011;53990;50.334;18.640;2023-06-26T11:36:41;7.70;;;5.90;;
67074;SDS011;53990;50.334;18.640;2023-06-26T11:39:08;6.30;;;5.70;;
67074;SDS011;53990;50.334;18.640;2023-06-26T11:41:37;7.20;;;6.40;;
67074;SDS011;53990;50.334;18.640;2023-06-26T11:44:06;8.20;;;6.50;;
67074;SDS011;53990;50.334;18.640;2023-06-26T11:46:37;6.70;;;5.40;;
67074;SDS011;53990;50.334;18.640;2023-06-26T11:49:08;6.80;;;5.20;;
67074;SDS011;53990;50.334;18.640;2023-06-26T11:51:34;7.90;;;5.50;;
67074;SDS011;53990;50.334;18.640;2023-06-26T11:54:03;7.70;;;5.50;;
67074;SDS011;53990;50.334;18.640;2023-06-26T11:56:31;6.20;;;5.40;;
67074;SDS011;53990;50.334;18.640;2023-06-26T12:01:33;7.40;;;5.60;;
67074;SDS011;53990;50.334;18.640;2023-06-26T12:04:03;7.30;;;5.70;;
67074;SDS011;53990;50.334;18.640;2023-06-26T12:06:33;6.40;;;5.20;;
67074;SDS011;53990;50.334;18.640;2023-06-26T12:09:05;8.20;;;5.60;;
67074;SDS011;53990;50.334;18.640;2023-06-26T12:11:33;5.90;;;5.00;;
67074;SDS011;53990;50.334;18.640;2023-06-26T12:14:01;7.60;;;6.10;;
67074;SDS011;53990;50.334;18.640;2023-06-26T12:16:29;6.40;;;5.40;;
67074;SDS011;53990;50.334;18.640;2023-06-26T12:19:04;6.00;;;4.90;;
67074;SDS011;53990;50.334;18.640;2023-06-26T12:24:04;6.50;;;5.20;;
67074;SDS011;53990;50.334;18.640;2023-06-26T12:26:31;6.50;;;4.60;;
67074;SDS011;53990;50.334;18.640;2023-06-26T12:29:10;6.50;;;4.70;;
67074;SDS011;53990;50.334;18.640;2023-06-26T12:31:44;5.60;;;4.80;;
67074;SDS011;53990;50.334;18.640;2023-06-26T12:34:13;5.70;;;4.90;;
67074;SDS011;53990;50.334;18.640;2023-06-26T12:36:45;5.70;;;5.00;;
67074;SDS011;53990;50.334;18.640;2023-06-26T12:39:12;7.10;;;5.20;;
67074;SDS011;53990;50.334;18.640;2023-06-26T12:44:16;6.00;;;4.70;;
67074;SDS011;53990;50.334;18.640;2023-06-26T12:46:44;5.20;;;4.20;;
67074;SDS011;53990;50.334;18.640;2023-06-26T12:49:12;4.20;;;3.70;;
67074;SDS011;53990;50.334;18.640;2023-06-26T12:51:39;4.90;;;4.20;;
67074;SDS011;53990;50.334;18.640;2023-06-26T12:54:06;5.30;;;3.90;;
67074;SDS011;53990;50.334;18.640;2023-06-26T12:56:34;5.20;;;4.10;;
67074;SDS011;53990;50.334;18.640;2023-06-26T12:59:00;4.70;;;3.60;;
67074;SDS011;53990;50.334;18.640;2023-06-26T13:01:27;5.00;;;4.10;;
67074;SDS011;53990;50.334;18.640;2023-06-26T13:03:54;5.70;;;4.30;;
67074;SDS011;53990;50.334;18.640;2023-06-26T13:06:21;4.60;;;4.20;;
67074;SDS011;53990;50.334;18.640;2023-06-26T13:08:47;5.20;;;4.70;;
67074;SDS011;53990;50.334;18.640;2023-06-26T13:11:14;6.00;;;5.50;;
67074;SDS011;53990;50.334;18.640;2023-06-26T13:13:43;6.70;;;6.20;;
67074;SDS011;53990;50.334;18.640;2023-06-26T13:16:10;6.00;;;5.50;;
67074;SDS011;53990;50.334;18.640;2023-06-26T13:18:36;5.20;;;4.80;;
67074;SDS011;53990;50.334;18.640;2023-06-26T13:21:03;5.40;;;5.00;;
67074;SDS011;53990;50.334;18.640;2023-06-26T13:23:30;5.80;;;5.30;;
67074;SDS011;53990;50.334;18.640;2023-06-26T13:25:56;7.30;;;5.70;;
67074;SDS011;53990;50.334;18.640;2023-06-26T13:28:23;7.00;;;6.30;;
67074;SDS011;53990;50.334;18.640;2023-06-26T13:30:50;6.00;;;5.40;;
67074;SDS011;53990;50.334;18.640;2023-06-26T13:33:17;5.60;;;5.10;;
67074;SDS011;53990;50.334;18.640;2023-06-26T13:35:44;5.80;;;5.10;;
67074;SDS011;53990;50.334;18.640;2023-06-26T13:38:10;5.10;;;4.60;;
67074;SDS011;53990;50.334;18.640;2023-06-26T13:40:37;7.10;;;6.40;;
67074;SDS011;53990;50.334;18.640;2023-06-26T13:43:04;5.90;;;5.40;;
67074;SDS011;53990;50.334;18.640;2023-06-26T13:45:30;9.40;;;8.70;;
67074;SDS011;53990;50.334;18.640;2023-06-26T13:47:57;7.80;;;7.20;;
67074;SDS011;53990;50.334;18.640;2023-06-26T13:50:24;8.40;;;7.80;;
67074;SDS011;53990;50.334;18.640;2023-06-26T13:52:51;9.30;;;8.70;;
67074;SDS011;53990;50.334;18.640;2023-06-26T13:55:17;8.50;;;7.90;;
67074;SDS011;53990;50.334;18.640;2023-06-26T13:57:45;9.90;;;9.20;;
67074;SDS011;53990;50.334;18.640;2023-06-26T14:00:12;9.60;;;9.00;;
67074;SDS011;53990;50.334;18.640;2023-06-26T14:02:39;9.20;;;8.50;;
67074;SDS011;53990;50.334;18.640;2023-06-26T14:05:06;9.40;;;8.70;;
67074;SDS011;53990;50.334;18.640;2023-06-26T14:07:33;8.80;;;8.00;;
67074;SDS011;53990;50.334;18.640;2023-06-26T14:09:59;9.50;;;8.90;;
67074;SDS011;53990;50.334;18.640;2023-06-26T14:12:26;9.40;;;8.80;;
67074;SDS011;53990;50.334;18.640;2023-06-26T14:14:53;9.10;;;8.50;;
67074;SDS011;53990;50.334;18.640;2023-06-26T14:17:19;8.90;;;8.20;;
67074;SDS011;53990;50.334;18.640;2023-06-26T14:19:46;9.10;;;8.40;;
67074;SDS011;53990;50.334;18.640;2023-06-26T14:22:13;8.90;;;8.10;;
67074;SDS011;53990;50.334;18.640;2023-06-26T14:24:39;9.10;;;8.50;;
67074;SDS011;53990;50.334;18.640;2023-06-26T14:27:06;8.30;;;7.70;;
67074;SDS011;53990;50.334;18.640;2023-06-26T14:29:33;7.20;;;6.70;;
67074;SDS011;53990;50.334;18.640;2023-06-26T14:31:59;8.30;;;7.70;;
67074;SDS011;53990;50.334;18.640;2023-06-26T14:34:26;7.60;;;6.40;;
67074;SDS011;53990;50.334;18.640;2023-06-26T14:36:53;7.60;;;6.90;;
67074;SDS011;53990;50.334;18.640;2023-06-26T14:39:19;6.60;;;6.20;;
67074;SDS011;53990;50.334;18.640;2023-06-26T14:41:46;8.30;;;7.60;;
67074;SDS011;53990;50.334;18.640;2023-06-26T14:44:14;6.80;;;6.30;;
67074;SDS011;53990;50.334;18.640;2023-06-26T14:46:41;6.70;;;6.10;;
67074;SDS011;53990;50.334;18.640;2023-06-26T14:49:08;6.10;;;5.60;;